Time;durP1;ratioP1;P1;durP2;ratioP2;P2;SDS_P1;SDS_P2;PMS_P1;PMS_P2;Temp;Humidity;BMP_temperature;BMP_pressure;BME280_temperature;BME280_humidity;BME280_pressure;Samples;Min_cycle;Max_cycle;Signal;HPM_P1;HPM_P2
2020/12/17 00:00:11;;;;;;;1.63;1.38;;;14.90;68.80;;;;;;4973518;28;20023;-63
2020/12/17 00:02:37;;;;;;;2.55;1.20;;;14.90;68.90;;;;;;4973789;28;20041;-63
2020/12/17 00:05:03;;;;;;;1.88;1.20;;;14.90;68.90;;;;;;4973775;28;20019;-63
2020/12/17 00:07:37;;;;;;;2.28;1.70;;;14.90;68.90;;;;;;4973749;28;20105;-63
2020/12/17 00:10:05;;;;;;;1.33;1.00;;;14.90;68.90;;;;;;4973793;28;20023;-63
2020/12/17 00:12:39;;;;;;;1.52;1.33;;;14.90;69.00;;;;;;4974784;28;20046;-63
2020/12/17 00:15:12;;;;;;;1.35;1.25;;;14.90;68.90;;;;;;4977500;28;20027;-62
2020/12/17 00:17:49;;;;;;;1.65;1.17;;;14.90;68.90;;;;;;4977564;28;20038;-63
2020/12/17 00:20:17;;;;;;;1.50;1.25;;;14.90;69.00;;;;;;4977416;28;20264;-63
2020/12/17 00:22:43;;;;;;;2.22;1.23;;;14.90;69.00;;;;;;4977136;28;20283;-63
2020/12/17 00:25:10;;;;;;;3.17;1.40;;;14.90;69.00;;;;;;4977311;28;20330;-63
2020/12/17 00:27:37;;;;;;;2.85;1.25;;;14.90;69.00;;;;;;4977330;28;20027;-62
2020/12/17 00:30:04;;;;;;;5.85;1.30;;;14.80;69.00;;;;;;4977296;28;20083;-63
2020/12/17 00:32:30;;;;;;;1.80;1.10;;;15.00;69.00;;;;;;4977126;28;20058;-63
2020/12/17 00:34:55;;;;;;;2.25;1.10;;;14.90;69.00;;;;;;4977113;28;20054;-63
2020/12/17 00:37:21;;;;;;;1.25;1.15;;;14.90;69.00;;;;;;4977052;28;20031;-63
2020/12/17 00:39:46;;;;;;;1.85;1.13;;;14.90;69.00;;;;;;4976771;28;20075;-63
2020/12/17 00:42:12;;;;;;;1.33;1.23;;;14.90;69.10;;;;;;4977024;28;20031;-63
2020/12/17 00:44:38;;;;;;;1.20;1.10;;;14.80;69.00;;;;;;4976628;28;20019;-63
2020/12/17 00:47:03;;;;;;;4.78;1.58;;;14.80;69.10;;;;;;4976615;28;20054;-63
2020/12/17 00:49:29;;;;;;;1.33;1.23;;;14.80;69.00;;;;;;4976859;28;20023;-63
2020/12/17 00:51:59;;;;;;;1.75;1.20;;;14.80;69.10;;;;;;4976773;28;20485;-63
2020/12/17 00:54:31;;;;;;;1.55;1.08;;;14.80;69.10;;;;;;4976814;28;20363;-63
2020/12/17 00:56:56;;;;;;;1.88;1.10;;;14.80;69.00;;;;;;4976823;28;20038;-63
2020/12/17 00:59:22;;;;;;;1.38;1.10;;;14.90;69.10;;;;;;4976493;28;20023;-63
2020/12/17 01:01:48;;;;;;;1.15;1.05;;;14.80;69.10;;;;;;4976666;28;20015;-63
2020/12/17 01:04:14;;;;;;;1.20;1.08;;;14.80;69.10;;;;;;4976634;28;20396;-63
2020/12/17 01:06:40;;;;;;;1.60;1.17;;;14.80;69.10;;;;;;4976249;28;20033;-63
2020/12/17 01:09:06;;;;;;;1.63;1.10;;;14.80;69.10;;;;;;4976508;28;20034;-63
2020/12/17 01:11:38;;;;;;;2.55;1.40;;;14.80;69.10;;;;;;4977205;28;20396;-63
2020/12/17 01:14:04;;;;;;;1.98;1.23;;;14.80;69.10;;;;;;4976119;28;20035;-63
2020/12/17 01:16:30;;;;;;;2.45;1.20;;;14.80;69.10;;;;;;4976451;28;20019;-63
2020/12/17 01:18:55;;;;;;;1.10;0.95;;;14.80;69.10;;;;;;4976035;28;20026;-63
2020/12/17 01:21:21;;;;;;;1.13;1.02;;;14.80;69.10;;;;;;4958711;28;20019;-63
2020/12/17 01:23:47;;;;;;;1.15;1.00;;;14.80;69.10;;;;;;4975864;28;20066;-63
2020/12/17 01:26:13;;;;;;;1.20;1.10;;;14.80;69.10;;;;;;4975745;28;20026;-63
2020/12/17 01:28:40;;;;;;;1.52;1.25;;;14.80;69.10;;;;;;4976083;28;20031;-63
2020/12/17 01:31:10;;;;;;;1.08;1.00;;;14.80;69.10;;;;;;4976176;28;20113;-63
2020/12/17 01:33:36;;;;;;;1.77;1.00;;;14.80;69.10;;;;;;4976180;28;20034;-63
2020/12/17 01:36:06;;;;;;;1.90;0.98;;;14.80;69.20;;;;;;4976051;28;20125;-63
2020/12/17 01:38:39;;;;;;;1.17;1.00;;;14.80;69.20;;;;;;4975853;28;20023;-63
2020/12/17 01:41:07;;;;;;;2.25;0.95;;;14.80;69.10;;;;;;4975821;28;20034;-63
2020/12/17 01:43:40;;;;;;;1.30;1.10;;;14.70;69.10;;;;;;4975963;28;20057;-63
2020/12/17 01:46:07;;;;;;;1.80;1.20;;;14.80;69.10;;;;;;4975958;28;20023;-62
2020/12/17 01:48:33;;;;;;;1.40;1.17;;;14.70;69.10;;;;;;4975551;28;20050;-63
2020/12/17 01:51:00;;;;;;;2.80;1.27;;;14.70;69.10;;;;;;4975821;28;20457;-63
2020/12/17 01:53:25;;;;;;;1.23;1.13;;;14.80;69.20;;;;;;4975440;28;20512;-63
2020/12/17 01:55:59;;;;;;;1.05;0.95;;;14.70;69.10;;;;;;4975689;28;20027;-63
2020/12/17 01:58:27;;;;;;;1.23;1.13;;;14.70;69.10;;;;;;4975751;28;20038;-63
2020/12/17 02:00:54;;;;;;;1.55;1.17;;;14.70;69.20;;;;;;4975242;28;20023;-63
2020/12/17 02:03:20;;;;;;;1.42;1.15;;;14.70;69.20;;;;;;4975574;28;20023;-63
2020/12/17 02:05:47;;;;;;;0.95;0.90;;;14.70;69.10;;;;;;4975277;28;20035;-63
2020/12/17 02:08:15;;;;;;;1.40;1.00;;;14.70;69.10;;;;;;4975780;28;20019;-63
2020/12/17 02:10:41;;;;;;;1.65;1.10;;;14.70;69.10;;;;;;4975166;28;20043;-63
2020/12/17 02:13:06;;;;;;;1.15;0.93;;;14.70;69.20;;;;;;4976043;28;20489;-63
2020/12/17 02:15:32;;;;;;;0.95;0.80;;;14.70;69.10;;;;;;4975286;28;20035;-63
2020/12/17 02:17:58;;;;;;;1.25;1.15;;;14.70;69.20;;;;;;4975213;28;20465;-63
2020/12/17 02:20:23;;;;;;;1.42;1.13;;;14.70;69.20;;;;;;4975256;28;20022;-62
2020/12/17 02:22:49;;;;;;;1.40;0.85;;;14.70;69.20;;;;;;4975106;28;20023;-62
2020/12/17 02:25:15;;;;;;;1.20;0.90;;;14.70;69.10;;;;;;4975147;28;20027;-62
2020/12/17 02:27:41;;;;;;;2.60;1.10;;;14.70;69.20;;;;;;4975048;28;20030;-62
2020/12/17 02:30:09;;;;;;;1.48;0.77;;;14.70;69.20;;;;;;4975093;28;20377;-63
2020/12/17 02:32:35;;;;;;;1.40;0.98;;;14.70;69.20;;;;;;4974616;28;20034;-62
2020/12/17 02:35:02;;;;;;;1.17;0.88;;;14.70;69.10;;;;;;4974873;28;20026;-63
2020/12/17 02:37:27;;;;;;;1.05;0.90;;;14.70;69.10;;;;;;4974504;28;20031;-63
2020/12/17 02:39:53;;;;;;;1.15;1.05;;;14.70;69.80;;;;;;4974628;28;20034;-63
2020/12/17 02:42:19;;;;;;;0.90;0.88;;;14.60;69.10;;;;;;4974837;28;20047;-63
2020/12/17 02:44:44;;;;;;;1.15;0.90;;;14.70;69.20;;;;;;4974582;28;20545;-61
2020/12/17 02:47:10;;;;;;;1.10;0.93;;;14.70;69.10;;;;;;4974541;28;20041;-61
2020/12/17 02:49:36;;;;;;;1.00;0.93;;;14.70;69.20;;;;;;4974745;28;20097;-63
2020/12/17 02:52:02;;;;;;;0.95;0.90;;;14.70;69.20;;;;;;4974347;28;20042;-63
2020/12/17 02:54:28;;;;;;;1.45;0.80;;;14.70;69.10;;;;;;4974706;28;20062;-63
2020/12/17 02:56:53;;;;;;;2.05;1.40;;;14.60;69.10;;;;;;4974666;28;20444;-62
2020/12/17 02:59:19;;;;;;;1.02;0.80;;;14.70;69.20;;;;;;4974539;28;20469;-62
2020/12/17 03:01:45;;;;;;;1.98;0.93;;;14.60;69.10;;;;;;4974263;28;20544;-63
2020/12/17 03:04:10;;;;;;;0.70;0.70;;;14.60;69.10;;;;;;4974129;28;20023;-63
2020/12/17 03:06:36;;;;;;;1.70;1.05;;;14.70;69.20;;;;;;4974427;28;20050;-63
2020/12/17 03:09:04;;;;;;;0.90;0.90;;;14.60;69.20;;;;;;4974322;28;20051;-63
2020/12/17 03:11:29;;;;;;;0.82;0.65;;;14.60;69.20;;;;;;4975251;28;20031;-63
2020/12/17 03:13:55;;;;;;;1.42;1.00;;;;;;;;;;4974241;28;20019;-63
2020/12/17 03:16:21;;;;;;;1.23;1.13;;;14.60;68.60;;;;;;4973967;28;20027;-62
2020/12/17 03:18:47;;;;;;;1.58;1.02;;;14.70;69.20;;;;;;4974025;28;20030;-62
2020/12/17 03:21:13;;;;;;;1.10;1.00;;;14.60;69.20;;;;;;4974129;28;20393;-62
2020/12/17 03:23:39;;;;;;;1.10;1.00;;;14.60;69.20;;;;;;4974146;28;20022;-63
2020/12/17 03:26:04;;;;;;;1.60;1.10;;;14.60;69.20;;;;;;4974118;28;20102;-61
2020/12/17 03:28:30;;;;;;;1.08;0.93;;;14.60;69.20;;;;;;4973803;28;20037;-61
2020/12/17 03:30:55;;;;;;;1.90;1.25;;;14.60;69.20;;;;;;4974316;28;20019;-61
2020/12/17 03:33:21;;;;;;;1.00;0.95;;;14.60;69.20;;;;;;4973964;28;20420;-62
2020/12/17 03:35:46;;;;;;;1.02;0.93;;;14.60;69.20;;;;;;4973751;28;20018;-63
2020/12/17 03:38:12;;;;;;;1.00;0.90;;;14.60;69.20;;;;;;4973976;28;20026;-63
2020/12/17 03:40:37;;;;;;;2.08;0.98;;;14.60;69.30;;;;;;4973580;28;20054;-63
2020/12/17 03:43:03;;;;;;;1.17;1.08;;;14.60;69.20;;;;;;4973682;28;20038;-63
2020/12/17 03:45:29;;;;;;;1.13;1.02;;;14.60;69.20;;;;;;4973892;28;20110;-63
2020/12/17 03:47:54;;;;;;;1.17;0.98;;;14.70;69.30;;;;;;4973393;28;20465;-63
2020/12/17 03:50:20;;;;;;;0.88;0.88;;;14.60;69.20;;;;;;4973886;28;20027;-62
2020/12/17 03:52:46;;;;;;;1.33;0.90;;;14.60;69.20;;;;;;4973797;28;20433;-63
2020/12/17 03:55:11;;;;;;;0.70;0.70;;;14.60;69.20;;;;;;4973880;28;20050;-63
2020/12/17 03:57:37;;;;;;;1.67;1.10;;;14.60;69.20;;;;;;4973821;28;20358;-63
2020/12/17 04:00:04;;;;;;;1.15;1.05;;;14.60;69.20;;;;;;4973421;28;20078;-63
2020/12/17 04:02:30;;;;;;;0.90;0.80;;;14.50;69.20;;;;;;4973845;28;20389;-63
2020/12/17 04:04:55;;;;;;;1.10;1.00;;;14.50;69.20;;;;;;4973756;28;20019;-61
2020/12/17 04:07:21;;;;;;;0.98;0.85;;;14.60;69.20;;;;;;4973842;28;20117;-63
2020/12/17 04:09:46;;;;;;;2.17;1.05;;;14.50;69.20;;;;;;4973552;28;20023;-63
2020/12/17 04:12:13;;;;;;;1.20;1.10;;;14.60;69.30;;;;;;4973962;28;20057;-63
2020/12/17 04:14:40;;;;;;;1.42;1.10;;;14.40;69.10;;;;;;4973439;28;20058;-63
2020/12/17 04:17:06;;;;;;;1.00;0.90;;;14.50;69.20;;;;;;4973612;28;20166;-63
2020/12/17 04:19:32;;;;;;;1.05;0.95;;;14.50;69.20;;;;;;4973426;28;20111;-63
2020/12/17 04:21:57;;;;;;;1.10;0.95;;;14.50;69.20;;;;;;4973660;28;20469;-63
2020/12/17 04:24:23;;;;;;;0.93;0.63;;;14.50;69.20;;;;;;4973626;28;20025;-63
2020/12/17 04:26:50;;;;;;;1.40;0.93;;;14.50;69.20;;;;;;4973575;28;20023;-63
2020/12/17 04:29:16;;;;;;;1.13;1.05;;;14.50;69.20;;;;;;4973570;28;20026;-63
2020/12/17 04:31:42;;;;;;;0.82;0.77;;;14.50;69.20;;;;;;4955815;28;20041;-63
2020/12/17 04:34:07;;;;;;;0.70;0.70;;;14.50;69.20;;;;;;4973196;28;20023;-61
2020/12/17 04:36:33;;;;;;;0.80;0.80;;;14.50;69.20;;;;;;4973077;28;20027;-61
2020/12/17 04:38:58;;;;;;;1.15;0.90;;;14.50;69.20;;;;;;4973467;28;20065;-63
2020/12/17 04:41:25;;;;;;;1.20;1.10;;;14.50;69.20;;;;;;4973461;28;20034;-63
2020/12/17 04:43:51;;;;;;;1.02;0.90;;;14.50;69.20;;;;;;4973140;28;20082;-63
2020/12/17 04:46:19;;;;;;;1.40;0.95;;;14.50;69.20;;;;;;4973438;28;20026;-63
2020/12/17 04:48:47;;;;;;;1.00;0.90;;;14.50;69.20;;;;;;4973399;28;20198;-63
2020/12/17 04:51:13;;;;;;;1.20;0.98;;;14.50;69.20;;;;;;4973090;28;20022;-63
2020/12/17 04:53:44;;;;;;;1.55;0.90;;;14.50;69.20;;;;;;4973006;28;20023;-63
2020/12/17 04:56:15;;;;;;;1.10;1.00;;;14.50;69.20;;;;;;4973181;28;20023;-63
2020/12/17 04:58:49;;;;;;;1.25;1.15;;;14.50;69.30;;;;;;4955770;28;20117;-63
2020/12/17 05:01:16;;;;;;;1.10;1.00;;;14.50;69.20;;;;;;4976150;28;20030;-63
2020/12/17 05:03:46;;;;;;;1.25;1.00;;;14.50;69.20;;;;;;4976658;28;20026;-63
2020/12/17 05:06:17;;;;;;;1.20;1.00;;;14.50;69.20;;;;;;4976627;28;20389;-63
2020/12/17 05:08:43;;;;;;;1.02;0.95;;;14.50;69.20;;;;;;4976636;28;20022;-63
2020/12/17 05:11:09;;;;;;;1.75;0.90;;;14.50;69.20;;;;;;4976263;28;20496;-63
2020/12/17 05:13:34;;;;;;;1.40;1.20;;;14.50;69.20;;;;;;4976916;28;20115;-63
2020/12/17 05:16:00;;;;;;;1.10;1.00;;;14.50;69.20;;;;;;4976082;28;20027;-61
2020/12/17 05:18:25;;;;;;;1.23;0.88;;;14.50;69.20;;;;;;4976353;28;20023;-63
2020/12/17 05:20:51;;;;;;;1.42;0.73;;;14.70;69.30;;;;;;4976317;28;20031;-63
2020/12/17 05:23:18;;;;;;;1.15;1.05;;;14.50;69.20;;;;;;4976528;28;20050;-63
2020/12/17 05:25:43;;;;;;;0.80;0.80;;;14.50;69.20;;;;;;4976037;28;20035;-63
2020/12/17 05:28:13;;;;;;;1.05;0.95;;;14.50;69.20;;;;;;4976231;28;20031;-63
2020/12/17 05:30:39;;;;;;;1.08;0.98;;;14.50;69.20;;;;;;4976257;28;20044;-63
2020/12/17 05:33:04;;;;;;;0.80;0.80;;;14.50;69.10;;;;;;4975803;28;20370;-63
2020/12/17 05:35:37;;;;;;;1.20;1.10;;;14.50;69.10;;;;;;4976052;28;20046;-63
2020/12/17 05:38:05;;;;;;;1.48;1.10;;;14.50;69.10;;;;;;4975838;28;20031;-63
2020/12/17 05:40:42;;;;;;;1.23;1.13;;;14.50;69.10;;;;;;4975760;28;20066;-63
2020/12/17 05:43:08;;;;;;;0.82;0.82;;;14.50;69.10;;;;;;4976116;28;20077;-63
2020/12/17 05:45:40;;;;;;;0.80;0.70;;;14.50;69.10;;;;;;4975737;28;20083;-63
2020/12/17 05:48:19;;;;;;;1.05;0.95;;;14.50;69.10;;;;;;4975684;28;20058;-64
2020/12/17 05:50:49;;;;;;;1.00;0.85;;;14.50;69.10;;;;;;4975993;28;20027;-63
2020/12/17 05:53:16;;;;;;;0.70;0.70;;;14.50;69.20;;;;;;4975387;28;20031;-63
2020/12/17 05:55:42;;;;;;;1.08;1.00;;;14.50;69.20;;;;;;4975743;28;20023;-63
2020/12/17 05:58:11;;;;;;;2.45;1.25;;;14.50;69.20;;;;;;4975411;28;20034;-66
2020/12/17 06:00:36;;;;;;;1.13;1.02;;;14.50;69.20;;;;;;4975372;28;20508;-63
2020/12/17 06:03:02;;;;;;;2.55;1.08;;;14.50;69.20;;;;;;4975426;28;20027;-63
2020/12/17 06:05:30;;;;;;;1.10;0.80;;;14.60;69.30;;;;;;4975603;28;20034;-61
2020/12/17 06:08:00;;;;;;;1.13;0.90;;;14.80;70.10;;;;;;4975273;28;20030;-63
2020/12/17 06:10:30;;;;;;;0.70;0.70;;;14.80;69.90;;;;;;4974996;28;20047;-63
2020/12/17 06:13:01;;;;;;;1.60;1.17;;;14.70;69.70;;;;;;4975669;28;20050;-65
2020/12/17 06:15:31;;;;;;;0.70;0.70;;;14.80;69.80;;;;;;4975372;28;20019;-65
2020/12/17 06:18:01;;;;;;;1.88;0.65;;;14.90;69.90;;;;;;4975629;28;20046;-65
2020/12/17 06:20:32;;;;;;;2.83;1.10;;;15.00;70.20;;;;;;4975035;28;20030;-65
2020/12/17 06:23:00;;;;;;;2.05;0.90;;;15.00;70.30;;;;;;4975258;28;20441;-65
2020/12/17 06:25:27;;;;;;;1.15;1.05;;;15.00;70.20;;;;;;4975154;28;20046;-65
2020/12/17 06:27:53;;;;;;;1.58;0.90;;;15.10;70.20;;;;;;4975147;28;20375;-65
2020/12/17 06:30:25;;;;;;;1.58;0.88;;;15.20;70.20;;;;;;4974850;28;20492;-65
2020/12/17 06:32:55;;;;;;;2.45;1.20;;;15.30;70.10;;;;;;4975113;28;20110;-65
2020/12/17 06:36:13;;;;;;;3.17;1.00;;;15.30;70.00;;;;;;4974772;28;20481;-65
2020/12/17 06:38:40;;;;;;;1.08;0.90;;;15.30;69.90;;;;;;4877381;29;20480;-63
2020/12/17 06:41:19;;;;;;;1.60;1.02;;;15.40;69.90;;;;;;4877341;29;20171;-65
2020/12/17 06:43:46;;;;;;;1.58;1.05;;;15.40;69.60;;;;;;4931697;28;20460;-65
2020/12/17 06:46:31;;;;;;;0.85;0.80;;;15.50;69.60;;;;;;4974885;28;20414;-65
2020/12/17 06:48:58;;;;;;;1.58;1.10;;;15.60;69.50;;;;;;4974526;28;20026;-65
2020/12/17 06:51:36;;;;;;;1.10;1.00;;;15.60;69.40;;;;;;4974668;28;20118;-65
2020/12/17 06:54:07;;;;;;;0.88;0.88;;;15.70;69.20;;;;;;4974651;28;20037;-65
2020/12/17 06:56:37;;;;;;;2.55;0.98;;;15.60;69.10;;;;;;4974577;28;20150;-61
2020/12/17 06:59:19;;;;;;;3.17;1.00;;;15.70;69.10;;;;;;4974267;28;20500;-64
2020/12/17 07:01:46;;;;;;;2.28;1.00;;;15.70;69.00;;;;;;4974543;28;20405;-64
2020/12/17 07:04:12;;;;;;;3.50;0.90;;;15.70;68.90;;;;;;4974292;28;20096;-64
2020/12/17 07:06:38;;;;;;;2.03;1.08;;;15.70;68.90;;;;;;4974535;28;20094;-64
2020/12/17 07:09:05;;;;;;;1.33;1.23;;;15.70;68.80;;;;;;4974445;28;20066;-64
2020/12/17 07:11:39;;;;;;;2.08;1.10;;;15.70;68.60;;;;;;4974254;28;20019;-64
2020/12/17 07:14:06;;;;;;;2.03;0.90;;;15.80;68.60;;;;;;4974915;28;20067;-64
2020/12/17 07:16:35;;;;;;;1.58;1.10;;;15.70;68.70;;;;;;4974291;28;20048;-64
2020/12/17 07:19:22;;;;;;;1.67;1.25;;;15.90;68.60;;;;;;4974282;28;20401;-65
2020/12/17 07:22:00;;;;;;;1.63;0.90;;;15.80;68.60;;;;;;4973788;28;20019;-65
2020/12/17 07:24:30;;;;;;;4.10;1.08;;;15.80;68.40;;;;;;4973619;28;20037;-63
2020/12/17 07:27:23;;;;;;;3.72;1.15;;;15.80;68.40;;;;;;4974142;28;20026;-65
2020/12/17 07:29:58;;;;;;;1.27;1.13;;;15.90;68.40;;;;;;4963671;28;20398;-65
2020/12/17 07:32:29;;;;;;;0.95;0.93;;;15.90;68.30;;;;;;4974100;28;20046;-65
2020/12/17 07:34:58;;;;;;;1.05;0.95;;;15.90;68.10;;;;;;4973693;28;20031;-64
2020/12/17 07:37:35;;;;;;;1.50;0.95;;;15.90;68.10;;;;;;4974031;28;20377;-64
2020/12/17 07:40:25;;;;;;;4.25;1.33;;;15.90;68.10;;;;;;4973923;28;20030;-65
2020/12/17 07:42:57;;;;;;;3.22;1.10;;;16.00;67.90;;;;;;4962170;28;20046;-65
2020/12/17 07:45:56;;;;;;;4.80;1.48;;;16.10;67.80;;;;;;4973930;28;20500;-63
2020/12/17 07:48:34;;;;;;;3.33;1.38;;;16.00;67.80;;;;;;4920959;28;20027;-63
2020/12/17 07:51:14;;;;;;;2.72;1.20;;;16.10;67.70;;;;;;4973518;28;20481;-64
2020/12/17 07:53:47;;;;;;;2.13;1.38;;;16.10;67.50;;;;;;4973812;28;20034;-62
2020/12/17 07:56:13;;;;;;;4.03;1.10;;;16.10;68.10;;;;;;4973847;28;20027;-63
2020/12/17 07:58:40;;;;;;;2.65;1.05;;;16.00;67.30;;;;;;4973616;28;20034;-63
2020/12/17 08:01:07;;;;;;;1.70;1.20;;;16.10;67.30;;;;;;4973589;28;20031;-63
2020/12/17 08:03:45;;;;;;;2.17;1.20;;;16.10;67.20;;;;;;4973704;28;20019;-63
2020/12/17 08:06:15;;;;;;;3.05;1.27;;;16.00;67.10;;;;;;4973648;28;20091;-61
2020/12/17 08:08:41;;;;;;;1.48;1.15;;;16.10;67.00;;;;;;4956155;28;20110;-63
2020/12/17 08:11:08;;;;;;;1.67;1.10;;;16.10;66.90;;;;;;4973713;28;20110;-64
2020/12/17 08:13:34;;;;;;;3.53;1.02;;;16.20;66.80;;;;;;4973915;28;20097;-64
2020/12/17 08:16:01;;;;;;;1.75;1.13;;;16.20;66.60;;;;;;4973720;28;20011;-64
2020/12/17 08:18:31;;;;;;;1.25;0.98;;;16.20;66.50;;;;;;4973572;28;20031;-63
2020/12/17 08:21:12;;;;;;;1.73;1.08;;;16.20;66.50;;;;;;4973400;28;20051;-64
2020/12/17 08:23:39;;;;;;;1.15;1.00;;;16.30;66.50;;;;;;4973680;28;20068;-64
2020/12/17 08:26:07;;;;;;;2.15;1.23;;;16.30;66.40;;;;;;4973571;28;20106;-64
2020/12/17 08:28:38;;;;;;;2.60;0.98;;;16.30;66.30;;;;;;4973554;28;20490;-64
2020/12/17 08:31:07;;;;;;;2.33;1.23;;;16.30;66.20;;;;;;4973674;28;20027;-64
2020/12/17 08:33:35;;;;;;;2.55;1.10;;;16.40;66.10;;;;;;4974065;28;20035;-63
2020/12/17 08:36:05;;;;;;;1.25;1.10;;;16.40;66.00;;;;;;4977157;28;20033;-63
2020/12/17 08:38:32;;;;;;;4.22;1.17;;;16.40;66.10;;;;;;4977300;28;20082;-64
2020/12/17 08:40:59;;;;;;;2.83;0.95;;;16.50;65.80;;;;;;4977713;28;20015;-64
2020/12/17 08:43:28;;;;;;;1.65;1.13;;;16.50;65.80;;;;;;4977055;28;20032;-64
2020/12/17 08:45:56;;;;;;;4.88;1.13;;;16.50;65.60;;;;;;4977353;28;20026;-64
2020/12/17 08:48:22;;;;;;;1.05;0.90;;;16.50;65.60;;;;;;4977310;28;20055;-63
2020/12/17 08:50:49;;;;;;;1.80;1.00;;;16.60;65.50;;;;;;4977130;28;20031;-64
2020/12/17 08:53:23;;;;;;;1.45;0.90;;;16.70;65.30;;;;;;4976898;28;20046;-64
2020/12/17 08:56:12;;;;;;;3.20;0.98;;;16.80;65.10;;;;;;4976919;28;20023;-64
2020/12/17 08:58:53;;;;;;;3.10;1.30;;;16.90;64.90;;;;;;4977077;28;20102;-63
2020/12/17 09:01:41;;;;;;;4.25;1.20;;;17.00;64.70;;;;;;4976750;28;20050;-64
2020/12/17 09:04:08;;;;;;;1.50;1.00;;;17.00;64.40;;;;;;4976257;28;20121;-63
2020/12/17 09:06:34;;;;;;;1.65;0.90;;;17.10;64.30;;;;;;4976708;28;20027;-63
2020/12/17 09:09:13;;;;;;;2.60;1.10;;;17.20;64.20;;;;;;4976818;28;20156;-63
2020/12/17 09:11:39;;;;;;;4.30;1.50;;;17.20;64.00;;;;;;4976568;28;20062;-63
2020/12/17 09:14:07;;;;;;;3.78;0.95;;;17.30;63.90;;;;;;4976368;28;20492;-62
2020/12/17 09:16:35;;;;;;;0.80;0.80;;;17.30;63.70;;;;;;4958918;28;20434;-63
2020/12/17 09:19:07;;;;;;;2.10;0.90;;;17.40;63.80;;;;;;4976551;28;20059;-63
2020/12/17 09:21:56;;;;;;;2.35;0.98;;;17.40;63.70;;;;;;4976205;28;20027;-63
2020/12/17 09:24:33;;;;;;;2.30;1.00;;;17.40;63.60;;;;;;4976474;28;20027;-64
2020/12/17 09:27:26;;;;;;;1.40;0.80;;;17.40;63.60;;;;;;4976094;28;20038;-61
2020/12/17 09:30:13;;;;;;;1.10;1.00;;;17.40;63.60;;;;;;4976047;28;20054;-63
2020/12/17 09:32:53;;;;;;;1.40;0.98;;;17.40;63.60;;;;;;4975962;28;20045;-64
2020/12/17 09:35:19;;;;;;;0.82;0.77;;;17.40;63.60;;;;;;4976097;28;20027;-62
2020/12/17 09:38:05;;;;;;;4.18;1.17;;;17.40;63.60;;;;;;4976176;28;20502;-63
2020/12/17 09:40:33;;;;;;;1.92;1.27;;;17.30;63.60;;;;;;4976127;28;20030;-63
2020/12/17 09:43:25;;;;;;;1.10;1.00;;;17.40;63.60;;;;;;4975835;28;20023;-63
2020/12/17 09:45:50;;;;;;;3.13;1.00;;;17.30;63.70;;;;;;4970470;28;20134;-63
2020/12/17 09:48:19;;;;;;;3.40;0.90;;;17.40;63.60;;;;;;4975623;28;20499;-62
2020/12/17 09:51:09;;;;;;;2.10;0.98;;;17.30;63.60;;;;;;4975963;28;20422;-62
2020/12/17 09:53:37;;;;;;;3.55;1.17;;;17.40;63.90;;;;;;4976198;28;20098;-64
2020/12/17 09:56:04;;;;;;;2.70;0.93;;;17.30;63.70;;;;;;4975676;28;20496;-64
2020/12/17 09:58:29;;;;;;;2.90;0.80;;;17.30;63.60;;;;;;4975810;28;20098;-63
2020/12/17 10:00:55;;;;;;;2.55;0.90;;;17.30;63.60;;;;;;4975738;28;20521;-63
2020/12/17 10:03:21;;;;;;;1.58;1.00;;;17.30;63.70;;;;;;4975438;28;20030;-61
2020/12/17 10:05:46;;;;;;;2.67;0.80;;;17.30;63.70;;;;;;4975708;28;20023;-61
2020/12/17 10:08:12;;;;;;;2.97;0.70;;;17.20;63.60;;;;;;4975218;28;20402;-61
2020/12/17 10:10:37;;;;;;;1.33;0.80;;;17.30;63.70;;;;;;4975511;28;20026;-61
2020/12/17 10:13:06;;;;;;;1.67;0.90;;;17.30;63.80;;;;;;4975581;28;20121;-62
2020/12/17 10:15:32;;;;;;;1.25;0.88;;;17.30;63.80;;;;;;4975530;28;20030;-63
2020/12/17 10:17:57;;;;;;;3.30;1.05;;;17.30;63.80;;;;;;4975458;28;20038;-62
2020/12/17 10:20:23;;;;;;;2.25;0.93;;;17.30;63.70;;;;;;4975099;28;20362;-61
2020/12/17 10:22:50;;;;;;;1.33;0.90;;;17.30;63.80;;;;;;4975320;28;20339;-61
2020/12/17 10:25:17;;;;;;;3.80;0.70;;;17.40;63.90;;;;;;4975307;28;20438;-62
2020/12/17 10:27:49;;;;;;;2.63;1.02;;;17.40;63.80;;;;;;4974938;28;20534;-61
2020/12/17 10:30:15;;;;;;;1.55;0.98;;;17.40;63.90;;;;;;4975265;28;20087;-61
2020/12/17 10:32:41;;;;;;;3.45;1.17;;;17.40;64.10;;;;;;4974787;28;20433;-61
2020/12/17 10:35:08;;;;;;;5.03;1.15;;;17.40;64.00;;;;;;4975030;28;20031;-62
2020/12/17 10:37:35;;;;;;;4.95;1.30;;;17.40;63.90;;;;;;4975049;28;20034;-63
2020/12/17 10:40:01;;;;;;;4.50;1.75;;;17.40;64.20;;;;;;4974665;28;20027;-63
2020/12/17 10:42:27;;;;;;;2.58;1.05;;;17.40;64.30;;;;;;4974856;28;20034;-63
2020/12/17 10:44:53;;;;;;;3.35;1.10;;;17.40;64.10;;;;;;4974897;28;20461;-63
2020/12/17 10:47:20;;;;;;;3.05;0.60;;;17.40;64.10;;;;;;4974863;28;20449;-62
2020/12/17 10:49:46;;;;;;;2.47;0.88;;;17.30;64.00;;;;;;4974500;28;20055;-60
2020/12/17 10:52:12;;;;;;;2.65;0.68;;;17.40;63.90;;;;;;4974629;28;20073;-60
2020/12/17 10:54:38;;;;;;;5.25;1.20;;;17.30;63.80;;;;;;4974366;28;20051;-60
2020/12/17 10:57:04;;;;;;;2.55;0.80;;;17.30;63.80;;;;;;4974245;28;20090;-60
2020/12/17 10:59:29;;;;;;;3.03;0.73;;;17.30;63.80;;;;;;4974632;28;20137;-60
2020/12/17 11:01:59;;;;;;;2.38;0.95;;;17.40;64.30;;;;;;4974562;28;20033;-60
2020/12/17 11:04:25;;;;;;;1.35;0.80;;;17.20;63.60;;;;;;4974484;28;20078;-60
2020/12/17 11:06:55;;;;;;;6.10;1.08;;;17.10;63.80;;;;;;4974036;28;20161;-60
2020/12/17 11:09:20;;;;;;;4.00;0.90;;;17.10;63.90;;;;;;4974382;28;20034;-61
2020/12/17 11:11:50;;;;;;;5.28;1.40;;;17.00;64.00;;;;;;4974252;28;20035;-60
2020/12/17 11:14:15;;;;;;;4.00;0.77;;;17.00;64.10;;;;;;4974587;28;20050;-60
2020/12/17 11:16:41;;;;;;;1.65;0.98;;;17.00;64.10;;;;;;4973984;28;20370;-60
2020/12/17 11:19:06;;;;;;;2.60;1.23;;;16.90;64.20;;;;;;4974086;28;20035;-60
2020/12/17 11:21:32;;;;;;;4.78;1.00;;;16.80;64.20;;;;;;4974296;28;20022;-60
2020/12/17 11:23:58;;;;;;;2.85;1.00;;;16.80;64.30;;;;;;4973868;28;20078;-60
2020/12/17 11:26:23;;;;;;;1.40;0.80;;;16.80;64.40;;;;;;4974174;28;20106;-60
2020/12/17 11:28:49;;;;;;;1.80;1.00;;;16.80;64.50;;;;;;4974125;28;20033;-60
2020/12/17 11:31:14;;;;;;;3.33;1.20;;;16.70;64.60;;;;;;4973850;28;20058;-60
2020/12/17 11:33:47;;;;;;;1.50;0.90;;;16.70;64.70;;;;;;4973657;28;20090;-60
2020/12/17 11:36:12;;;;;;;2.90;1.23;;;16.70;64.80;;;;;;4973892;28;20029;-60
2020/12/17 11:38:38;;;;;;;2.03;0.93;;;16.60;64.70;;;;;;4974097;28;20106;-60
2020/12/17 11:41:04;;;;;;;4.22;1.20;;;16.60;64.80;;;;;;4974041;28;20023;-61
2020/12/17 11:43:29;;;;;;;4.97;1.00;;;16.50;64.80;;;;;;4974639;28;20472;-62
2020/12/17 11:45:55;;;;;;;2.67;0.98;;;16.50;64.80;;;;;;4974144;28;20026;-62
2020/12/17 11:48:20;;;;;;;4.97;1.33;;;16.50;65.00;;;;;;4973872;28;20067;-62
2020/12/17 11:50:46;;;;;;;2.72;1.10;;;16.50;65.60;;;;;;4974023;28;20034;-62
2020/12/17 11:53:13;;;;;;;3.85;0.90;;;16.50;65.50;;;;;;4974085;28;20039;-60
2020/12/17 11:55:39;;;;;;;4.75;1.20;;;16.60;66.20;;;;;;4956259;28;20025;-60
2020/12/17 11:58:04;;;;;;;2.78;0.98;;;16.60;68.40;;;;;;4973593;28;20381;-60
2020/12/17 12:00:30;;;;;;;2.70;1.45;;;16.60;68.60;;;;;;4973671;28;20019;-61
2020/12/17 12:02:56;;;;;;;4.70;0.95;;;16.60;68.40;;;;;;4956218;28;20063;-61
2020/12/17 12:05:21;;;;;;;1.88;0.85;;;16.60;67.50;;;;;;4973481;28;20192;-61
2020/12/17 12:07:47;;;;;;;2.58;0.93;;;16.60;67.90;;;;;;4973747;28;20385;-60
2020/12/17 12:10:12;;;;;;;1.85;0.90;;;16.60;67.60;;;;;;4976776;28;20019;-60
2020/12/17 12:12:38;;;;;;;4.13;1.05;;;16.60;67.70;;;;;;4978076;28;20037;-60
2020/12/17 12:15:04;;;;;;;2.13;0.70;;;16.60;67.70;;;;;;4977499;28;20094;-60
2020/12/17 12:17:29;;;;;;;1.77;0.98;;;16.50;67.60;;;;;;4977309;28;20027;-60
2020/12/17 12:19:55;;;;;;;3.85;1.80;;;16.60;67.40;;;;;;4977489;28;20106;-61
2020/12/17 12:22:20;;;;;;;3.25;1.17;;;16.60;67.30;;;;;;4977558;28;20050;-61
2020/12/17 12:24:46;;;;;;;2.08;0.80;;;16.60;67.20;;;;;;4977237;28;20043;-61
2020/12/17 12:27:12;;;;;;;4.78;0.73;;;16.50;67.20;;;;;;4977029;28;20448;-61
2020/12/17 12:29:37;;;;;;;2.10;0.95;;;16.50;67.30;;;;;;4977343;28;20030;-60
2020/12/17 12:32:03;;;;;;;2.28;0.90;;;16.50;67.80;;;;;;4977024;28;20039;-61
2020/12/17 12:34:29;;;;;;;4.35;0.98;;;16.50;67.70;;;;;;4977251;28;20474;-61
2020/12/17 12:36:55;;;;;;;1.80;1.02;;;16.50;67.80;;;;;;4959500;28;20063;-61
2020/12/17 12:39:22;;;;;;;2.17;1.00;;;16.40;67.80;;;;;;4977321;28;20362;-62
2020/12/17 12:41:49;;;;;;;1.88;1.13;;;16.40;67.90;;;;;;4977134;28;20031;-62
2020/12/17 12:44:15;;;;;;;1.77;0.73;;;16.40;68.20;;;;;;4977087;28;20029;-61
2020/12/17 12:46:41;;;;;;;1.48;0.75;;;16.40;67.90;;;;;;4976955;28;20413;-61
2020/12/17 12:49:07;;;;;;;1.50;0.70;;;16.40;68.40;;;;;;4976838;28;20015;-61
2020/12/17 12:51:33;;;;;;;1.63;0.80;;;16.40;67.90;;;;;;4976600;28;20040;-61
2020/12/17 12:53:59;;;;;;;2.33;1.00;;;16.40;68.20;;;;;;4976892;28;20031;-61